Terminal Aerodrome Forecast
Issued by NWS Sterling, VA

Home | Current Version | Previous Version | Text Only | Print | Product List | Glossary On
Versions: 1 2 3 4 5 6 7 8 9 10 11 12 13 14 15 16 17 18 19 20 21 22 23 24 25 26
000
FTUS41 KLWX 230523
TAFCHO
TAF
KCHO 230523Z 2306/2406 04010KT 2SM RA BR OVC003
     FM231500 07007KT 1SM RA BR OVC003 WS020/07035KT
     FM231800 06006KT 1SM -RA BR OVC003
     FM240000 02006KT P6SM OVC010
     FM240300 33006KT P6SM OVC010=

USA.gov is the U.S. government's official web portal to all federal, state and local government web resources and services.